SANE/SDE METAR and TAF weather

Enter ICAO airport designator
Station Type Date Time Source
SANE METAR 2019/07/30 11:49 UTC NOAA

SANE 301149Z 34002KT 6000 NSC 02/01 Q1020


Station Type Date Time Source
SANE Decoded METAR 2019/07/30 11:49 UTC NOAA

Santiago Del Estero Aero., Argentina (SANE) 27-46S 064-18W 199M
Jul 30, 2019 - 07:49 AM EDT / 2019.07.30 1149 UTC
Wind: from the NNW (340 degrees) at 2 MPH (2 KT):0
Visibility: 3 mile(s):0
Temperature: 35 F (2 C)
Dew Point: 33 F (1 C)
Relative Humidity: 93%
Pressure (altimeter): 30.12 in. Hg (1020 hPa)
ob: SANE 301149Z 34002KT 6000 NSC 02/01 Q1020
cycle: 12

Station Type Date Time Source
SANE TAF 2019/08/20 00:03 UTC NOAA

TAF TAF SANE 202300Z 2100/2124 14005KT CAVOK TX21/2118Z TN02/2110Z
BECMG 2105/2107 07005KT

Example: see airport list